createdAt,value
2019-05-29T00:00:44.592Z,100.00
2019-05-29T00:03:18.629Z,100.00
2019-05-29T00:05:51.250Z,100.00
2019-05-29T00:08:24.267Z,100.00
2019-05-29T00:10:57.288Z,100.00
2019-05-29T00:13:29.679Z,100.00
2019-05-29T00:16:02.598Z,100.00
2019-05-29T00:18:35.208Z,100.00
2019-05-29T00:21:08.315Z,100.00
2019-05-29T00:23:41.295Z,100.00
2019-05-29T00:26:14.589Z,100.00
2019-05-29T00:28:47.302Z,100.00
2019-05-29T00:31:20.892Z,100.00
2019-05-29T00:33:53.697Z,100.00
2019-05-29T00:36:26.162Z,100.00
2019-05-29T00:38:58.330Z,100.00
2019-05-29T00:41:30.674Z,100.00
2019-05-29T00:44:03.620Z,100.00
2019-05-29T00:46:36.339Z,100.00
2019-05-29T00:49:09.718Z,100.00
2019-05-29T00:51:42.311Z,100.00
2019-05-29T00:54:14.958Z,100.00
2019-05-29T00:56:47.722Z,100.00
2019-05-29T00:59:20.735Z,100.00
2019-05-29T01:01:53.188Z,100.00
2019-05-29T01:04:25.270Z,100.00
2019-05-29T01:06:57.673Z,100.00
2019-05-29T01:09:30.571Z,100.00
2019-05-29T01:12:03.076Z,100.00
2019-05-29T01:14:49.279Z,100.00
2019-05-29T01:17:12.069Z,100.00
2019-05-29T01:19:44.863Z,100.00
2019-05-29T01:22:18.694Z,100.00
2019-05-29T01:24:51.306Z,100.00
2019-05-29T01:27:23.899Z,100.00
2019-05-29T01:29:56.677Z,100.00
2019-05-29T01:32:29.310Z,100.00
2019-05-29T01:35:02.172Z,100.00
2019-05-29T01:37:34.536Z,100.00
2019-05-29T01:40:19.254Z,100.00
2019-05-29T01:42:41.946Z,100.00
2019-05-29T01:45:15.489Z,100.00
2019-05-29T01:47:48.132Z,100.00
2019-05-29T01:50:21.757Z,100.00
2019-05-29T01:52:54.403Z,100.00
2019-05-29T01:55:27.970Z,100.00
2019-05-29T01:58:00.478Z,100.00
2019-05-29T02:00:33.124Z,100.00
2019-05-29T02:03:05.741Z,100.00
2019-05-29T02:05:38.666Z,100.00
2019-05-29T02:08:12.162Z,100.00
2019-05-29T02:10:45.057Z,100.00
2019-05-29T02:13:17.595Z,100.00
2019-05-29T02:15:50.951Z,100.00
2019-05-29T02:18:23.382Z,100.00
2019-05-29T02:20:56.088Z,100.00
2019-05-29T02:23:28.772Z,100.00
2019-05-29T02:26:01.602Z,96.61
2019-05-29T02:28:35.260Z,92.11
2019-05-29T02:31:08.193Z,90.98
2019-05-29T02:33:40.893Z,89.50
2019-05-29T02:36:13.603Z,89.27
2019-05-29T02:38:46.114Z,87.15
2019-05-29T02:41:19.131Z,82.49
2019-05-29T02:43:52.846Z,80.07
2019-05-29T02:46:26.517Z,77.19
2019-05-29T02:48:59.823Z,72.92
2019-05-29T02:51:32.345Z,73.74
2019-05-29T02:54:05.266Z,71.66
2019-05-29T02:56:42.047Z,68.48
2019-05-29T02:59:12.491Z,67.61
2019-05-29T03:01:45.049Z,64.70
2019-05-29T03:04:18.061Z,64.24
2019-05-29T03:06:50.660Z,60.74
2019-05-29T03:09:24.750Z,61.72
2019-05-29T03:12:00.395Z,60.45
2019-05-29T03:14:34.581Z,58.48
2019-05-29T03:17:07.680Z,55.26
2019-05-29T03:19:40.772Z,56.94
2019-05-29T03:22:13.761Z,55.38
2019-05-29T03:24:46.686Z,54.27
2019-05-29T03:27:19.295Z,53.39
2019-05-29T03:29:54.446Z,51.39
2019-05-29T03:32:30.657Z,49.44
2019-05-29T03:35:01.679Z,51.37
2019-05-29T03:37:34.688Z,47.49
2019-05-29T03:40:08.062Z,47.51
2019-05-29T03:42:40.728Z,47.96
2019-05-29T03:45:13.691Z,48.94
2019-05-29T03:47:46.195Z,46.91
2019-05-29T03:50:19.025Z,46.80
2019-05-29T03:52:51.652Z,45.02
2019-05-29T03:55:27.200Z,45.46
2019-05-29T03:57:59.504Z,45.63
2019-05-29T04:00:41.814Z,46.55
2019-05-29T04:03:06.507Z,46.15
2019-05-29T04:05:39.236Z,41.95
2019-05-29T04:08:11.640Z,40.15
2019-05-29T04:10:44.315Z,40.98
2019-05-29T04:13:16.916Z,40.43
2019-05-29T04:15:50.080Z,39.94
2019-05-29T04:18:24.299Z,37.03
2019-05-29T04:20:57.500Z,36.67
2019-05-29T04:23:34.145Z,37.45
2019-05-29T04:26:07.271Z,35.96
2019-05-29T04:28:39.763Z,35.58
2019-05-29T04:31:12.421Z,35.70
2019-05-29T04:33:45.056Z,34.71
2019-05-29T04:36:17.839Z,36.64
2019-05-29T04:38:50.555Z,35.73
2019-05-29T04:41:23.266Z,38.89
2019-05-29T04:43:57.224Z,36.39
2019-05-29T04:46:30.132Z,33.94
2019-05-29T04:49:04.018Z,32.72
2019-05-29T04:51:37.329Z,32.95
2019-05-29T04:54:11.139Z,34.58
2019-05-29T04:56:43.783Z,37.01
2019-05-29T04:59:16.173Z,36.08
2019-05-29T05:01:48.879Z,33.18
2019-05-29T05:04:22.853Z,35.79
2019-05-29T05:06:55.365Z,34.61
2019-05-29T05:09:27.796Z,36.43
2019-05-29T05:12:00.822Z,37.13
2019-05-29T05:14:33.718Z,35.23
2019-05-29T05:17:06.286Z,35.03
2019-05-29T05:19:40.152Z,35.12
2019-05-29T05:22:12.889Z,36.63
2019-05-29T05:24:45.576Z,36.55
2019-05-29T05:27:18.310Z,35.73
2019-05-29T05:29:50.697Z,36.81
2019-05-29T05:32:23.597Z,36.09
2019-05-29T05:34:56.332Z,35.22
2019-05-29T05:37:28.970Z,34.26
2019-05-29T05:40:01.415Z,32.29
2019-05-29T05:42:34.863Z,31.49
2019-05-29T05:45:07.909Z,30.80
2019-05-29T05:47:54.079Z,31.35
2019-05-29T05:50:14.790Z,31.55
2019-05-29T05:52:47.304Z,30.67
2019-05-29T05:55:20.433Z,30.15
2019-05-29T05:57:53.015Z,29.52
2019-05-29T06:00:35.669Z,30.63
2019-05-29T06:03:09.066Z,28.75
2019-05-29T06:05:42.284Z,28.31
2019-05-29T06:08:14.876Z,27.89
2019-05-29T06:10:47.360Z,27.89
2019-05-29T06:13:20.002Z,29.92
2019-05-29T06:15:52.214Z,29.87
2019-05-29T06:18:24.716Z,28.73
2019-05-29T06:20:57.190Z,26.98
2019-05-29T06:23:29.852Z,26.41
2019-05-29T06:26:02.623Z,28.99
2019-05-29T06:28:35.473Z,26.78
2019-05-29T06:31:07.948Z,26.17
2019-05-29T06:33:41.519Z,25.62
2019-05-29T06:36:14.050Z,26.15
2019-05-29T06:38:46.895Z,26.82
2019-05-29T06:41:19.434Z,26.30
2019-05-29T06:43:52.160Z,26.48
2019-05-29T06:46:24.587Z,26.61
2019-05-29T06:49:00.694Z,27.80
2019-05-29T06:51:31.573Z,25.95
2019-05-29T06:54:04.304Z,26.65
2019-05-29T06:56:37.764Z,27.42
2019-05-29T06:59:10.490Z,28.16
2019-05-29T07:01:43.539Z,27.12
2019-05-29T07:04:16.263Z,27.32
2019-05-29T07:06:48.565Z,27.90
2019-05-29T07:09:21.201Z,28.25
2019-05-29T07:11:53.704Z,28.02
2019-05-29T07:14:26.243Z,28.74
2019-05-29T07:16:58.885Z,28.00
2019-05-29T07:19:47.465Z,27.12
2019-05-29T07:22:05.931Z,26.13
2019-05-29T07:24:38.830Z,26.53
2019-05-29T07:27:13.617Z,27.48
2019-05-29T07:29:47.354Z,26.92
2019-05-29T07:32:19.670Z,27.04
2019-05-29T07:35:03.366Z,26.96
2019-05-29T07:37:26.424Z,26.12
2019-05-29T07:39:59.365Z,26.92
2019-05-29T07:42:32.050Z,26.97
2019-05-29T07:45:05.659Z,26.48
2019-05-29T07:47:38.453Z,26.83
2019-05-29T07:50:12.523Z,28.16
2019-05-29T07:52:47.077Z,28.52
2019-05-29T07:55:23.649Z,27.66
2019-05-29T07:57:55.376Z,28.01
2019-05-29T08:00:35.087Z,28.43
2019-05-29T08:03:01.854Z,28.20
2019-05-29T08:05:34.414Z,29.24
2019-05-29T08:08:06.883Z,28.88
2019-05-29T08:10:40.035Z,29.73
2019-05-29T08:13:12.980Z,31.66
2019-05-29T08:15:57.507Z,31.16
2019-05-29T08:18:19.571Z,29.17
2019-05-29T08:20:52.385Z,30.43
2019-05-29T08:23:24.724Z,29.52
2019-05-29T08:25:58.077Z,31.33
2019-05-29T08:28:30.487Z,34.09
2019-05-29T08:31:03.514Z,37.41
2019-05-29T08:33:35.742Z,40.30
2019-05-29T08:36:09.343Z,41.11
2019-05-29T08:38:44.163Z,41.56
2019-05-29T08:41:16.319Z,42.88
2019-05-29T08:43:50.604Z,42.12
2019-05-29T08:46:23.405Z,42.45
2019-05-29T08:48:56.263Z,41.59
2019-05-29T08:51:28.891Z,40.85
2019-05-29T08:54:01.724Z,42.63
2019-05-29T08:56:34.930Z,43.18
2019-05-29T08:59:07.520Z,43.13
2019-05-29T09:01:40.254Z,43.65
2019-05-29T09:04:12.939Z,43.57
2019-05-29T09:06:47.523Z,44.90
2019-05-29T09:09:19.818Z,43.13
2019-05-29T09:11:53.745Z,42.71
2019-05-29T09:14:26.749Z,43.54
2019-05-29T09:16:59.230Z,44.21
2019-05-29T09:19:32.019Z,45.00
2019-05-29T09:22:06.933Z,45.77
2019-05-29T09:24:39.529Z,45.86
2019-05-29T09:27:12.767Z,45.03
2019-05-29T09:29:46.470Z,47.25
2019-05-29T09:32:40.878Z,50.17
2019-05-29T09:34:53.127Z,49.70
2019-05-29T09:37:25.551Z,48.69
2019-05-29T09:39:58.260Z,49.97
2019-05-29T09:42:30.713Z,50.74
2019-05-29T09:45:03.315Z,50.73
2019-05-29T09:47:36.454Z,51.11
2019-05-29T09:50:09.659Z,51.42
2019-05-29T09:52:41.839Z,50.75
2019-05-29T09:55:14.724Z,50.20
2019-05-29T09:57:47.428Z,51.25
2019-05-29T10:00:20.469Z,49.98
2019-05-29T10:02:54.311Z,50.37
2019-05-29T10:05:27.705Z,51.67
2019-05-29T10:08:02.349Z,51.33
2019-05-29T10:10:34.678Z,50.40
2019-05-29T10:13:07.182Z,51.08
2019-05-29T10:15:39.925Z,51.54
2019-05-29T10:18:30.550Z,51.64
2019-05-29T10:20:46.674Z,50.35
2019-05-29T10:23:20.159Z,49.84
2019-05-29T10:25:53.491Z,48.27
2019-05-29T10:28:25.988Z,48.28
2019-05-29T10:31:03.184Z,47.69
2019-05-29T10:33:32.777Z,47.27
2019-05-29T10:36:05.229Z,48.35
2019-05-29T10:38:37.800Z,47.09
2019-05-29T10:41:10.331Z,48.58
2019-05-29T10:43:42.970Z,47.42
2019-05-29T10:46:15.420Z,46.76
2019-05-29T10:48:51.030Z,46.54
2019-05-29T10:51:22.681Z,48.28
2019-05-29T10:53:58.330Z,47.46
2019-05-29T10:56:29.667Z,46.38
2019-05-29T10:59:02.252Z,43.93
2019-05-29T11:01:34.736Z,43.46
2019-05-29T11:04:07.454Z,43.58
2019-05-29T11:06:40.954Z,45.25
2019-05-29T11:09:14.752Z,46.06
2019-05-29T11:11:48.236Z,46.87
2019-05-29T11:14:20.961Z,45.80
2019-05-29T11:16:53.516Z,45.87
2019-05-29T11:19:26.252Z,46.89
2019-05-29T11:22:04.560Z,47.90
2019-05-29T11:24:32.984Z,48.50
2019-05-29T11:27:05.758Z,47.58
2019-05-29T11:29:38.107Z,47.01
2019-05-29T11:32:10.387Z,46.79
2019-05-29T11:34:43.187Z,47.44
2019-05-29T11:37:15.606Z,46.31
2019-05-29T11:39:48.088Z,45.74
2019-05-29T11:42:27.660Z,45.31
2019-05-29T11:44:57.027Z,45.76
2019-05-29T11:47:29.640Z,45.39
2019-05-29T11:50:16.425Z,45.10
2019-05-29T11:52:42.947Z,44.61
2019-05-29T11:55:10.633Z,45.36
2019-05-29T11:57:43.264Z,46.24
2019-05-29T12:00:20.392Z,46.41
2019-05-29T12:02:51.546Z,46.37
2019-05-29T12:05:24.515Z,46.98
2019-05-29T12:07:57.564Z,47.27
2019-05-29T12:10:30.378Z,47.73
2019-05-29T12:13:02.653Z,45.52
2019-05-29T12:15:35.439Z,44.49
2019-05-29T12:18:22.731Z,44.41
2019-05-29T12:20:42.093Z,44.14
2019-05-29T12:23:25.815Z,44.70
2019-05-29T12:25:49.185Z,44.00
2019-05-29T12:28:21.620Z,44.01
2019-05-29T12:30:55.168Z,43.54
2019-05-29T12:33:27.660Z,43.71
2019-05-29T12:36:01.172Z,44.54
2019-05-29T12:38:33.679Z,43.76
2019-05-29T12:41:06.470Z,44.03
2019-05-29T12:43:39.001Z,43.61
2019-05-29T12:46:11.567Z,43.08
2019-05-29T12:48:43.913Z,43.10
2019-05-29T12:51:16.636Z,42.46
2019-05-29T12:53:49.001Z,41.25
2019-05-29T12:56:21.636Z,40.22
2019-05-29T12:58:54.261Z,39.80
2019-05-29T13:01:26.988Z,40.09
2019-05-29T13:04:00.467Z,40.32
2019-05-29T13:06:33.310Z,41.63
2019-05-29T13:09:08.213Z,40.86
2019-05-29T13:11:40.543Z,41.16
2019-05-29T13:14:12.827Z,41.96
2019-05-29T13:16:46.459Z,42.54
2019-05-29T13:19:18.864Z,43.55
2019-05-29T13:21:51.557Z,43.72
2019-05-29T13:24:23.846Z,44.46
2019-05-29T13:26:57.633Z,43.59
2019-05-29T13:29:29.777Z,43.50
2019-05-29T13:32:04.205Z,43.44
2019-05-29T13:34:36.329Z,43.64
2019-05-29T13:37:09.911Z,43.21
2019-05-29T13:39:42.228Z,42.77
2019-05-29T13:42:15.562Z,42.25
2019-05-29T13:44:48.425Z,42.47
2019-05-29T13:47:20.896Z,42.47
2019-05-29T13:49:53.283Z,42.96
2019-05-29T13:52:25.868Z,42.43
2019-05-29T13:54:59.272Z,42.08
2019-05-29T13:57:32.125Z,42.43
2019-05-29T14:00:30.274Z,42.70
2019-05-29T14:02:43.184Z,42.76
2019-05-29T14:05:16.825Z,41.11
2019-05-29T14:07:49.399Z,41.13
2019-05-29T14:10:22.349Z,40.61
2019-05-29T14:12:55.035Z,40.61
2019-05-29T14:15:27.423Z,40.36
2019-05-29T14:18:00.692Z,40.79
2019-05-29T14:20:32.994Z,41.21
2019-05-29T14:23:05.603Z,41.46
2019-05-29T14:25:37.827Z,41.64
2019-05-29T14:28:10.644Z,41.66
2019-05-29T14:30:43.263Z,41.60
2019-05-29T14:33:16.083Z,41.86
2019-05-29T14:35:48.788Z,41.90
2019-05-29T14:38:21.507Z,42.22
2019-05-29T14:40:54.344Z,42.51
2019-05-29T14:43:26.479Z,41.87
2019-05-29T14:45:59.104Z,42.71
2019-05-29T14:48:31.939Z,43.01
2019-05-29T14:51:04.941Z,42.99
2019-05-29T14:53:38.407Z,43.11
2019-05-29T14:56:10.995Z,43.16
2019-05-29T14:58:43.365Z,43.69
2019-05-29T15:01:15.780Z,43.74
2019-05-29T15:03:48.263Z,43.93
2019-05-29T15:06:21.461Z,44.99
2019-05-29T15:08:55.103Z,44.73
2019-05-29T15:11:31.464Z,43.86
2019-05-29T15:14:06.121Z,44.60
2019-05-29T15:16:38.882Z,43.37
2019-05-29T15:19:11.420Z,43.46
2019-05-29T15:21:44.126Z,43.47
2019-05-29T15:24:16.596Z,43.03
2019-05-29T15:26:49.266Z,43.38
2019-05-29T15:29:42.574Z,42.59
2019-05-29T15:32:16.543Z,42.98
2019-05-29T15:34:49.513Z,42.63
2019-05-29T15:37:22.094Z,43.18
2019-05-29T15:39:54.994Z,43.76
2019-05-29T15:42:27.908Z,43.85
2019-05-29T15:45:00.212Z,44.57
2019-05-29T15:47:32.879Z,45.50
2019-05-29T15:50:13.405Z,45.18
2019-05-29T15:52:46.221Z,45.18
2019-05-29T15:55:29.730Z,45.66
2019-05-29T15:57:54.275Z,45.59
2019-05-29T16:00:26.939Z,45.68
2019-05-29T16:02:59.702Z,46.22
2019-05-29T16:05:32.290Z,46.14
2019-05-29T16:08:05.029Z,46.28
2019-05-29T16:10:37.495Z,46.42
2019-05-29T16:13:11.030Z,46.64
2019-05-29T16:15:43.429Z,47.02
2019-05-29T16:18:23.716Z,47.03
2019-05-29T16:20:50.315Z,47.15
2019-05-29T16:23:35.199Z,47.67
2019-05-29T16:25:57.067Z,47.76
2019-05-29T16:28:29.657Z,47.91
2019-05-29T16:31:02.110Z,48.24
2019-05-29T16:33:34.832Z,48.33
2019-05-29T16:36:07.384Z,48.44
2019-05-29T16:38:40.275Z,48.92
2019-05-29T16:41:13.767Z,49.69
2019-05-29T16:43:46.756Z,50.04
2019-05-29T16:46:22.377Z,50.28
2019-05-29T16:48:53.881Z,50.91
2019-05-29T16:51:26.317Z,51.54
2019-05-29T16:53:59.851Z,51.74
2019-05-29T16:56:32.193Z,51.44
2019-05-29T16:59:04.792Z,51.47
2019-05-29T17:01:37.342Z,51.96
2019-05-29T17:04:10.225Z,52.17
2019-05-29T17:06:42.647Z,52.71
2019-05-29T17:09:16.346Z,52.70
2019-05-29T17:11:49.378Z,52.79
2019-05-29T17:14:22.837Z,53.13
2019-05-29T17:16:55.669Z,53.63
2019-05-29T17:19:28.341Z,53.18
2019-05-29T17:22:01.208Z,53.29
2019-05-29T17:24:33.722Z,53.61
2019-05-29T17:27:06.609Z,53.79
2019-05-29T17:29:40.122Z,53.79
2019-05-29T17:32:12.434Z,53.83
2019-05-29T17:34:45.347Z,54.09
2019-05-29T17:37:19.057Z,54.41
2019-05-29T17:39:51.452Z,54.77
2019-05-29T17:42:24.486Z,54.82
2019-05-29T17:44:57.716Z,54.85
2019-05-29T17:47:30.067Z,55.12
2019-05-29T17:50:02.762Z,55.03
2019-05-29T17:52:35.334Z,55.16
2019-05-29T17:55:08.186Z,54.59
2019-05-29T17:57:40.356Z,54.67
2019-05-29T18:00:20.573Z,54.97
2019-05-29T18:02:53.128Z,55.43
2019-05-29T18:05:26.705Z,55.60
2019-05-29T18:08:01.707Z,56.11
2019-05-29T18:10:33.508Z,55.99
2019-05-29T18:13:06.692Z,56.21
2019-05-29T18:15:39.382Z,56.49
2019-05-29T18:18:12.432Z,56.72
2019-05-29T18:20:44.844Z,56.86
2019-05-29T18:23:17.570Z,56.87
2019-05-29T18:25:51.137Z,57.04
2019-05-29T18:28:24.137Z,57.16
2019-05-29T18:30:56.618Z,57.25
2019-05-29T18:33:29.307Z,57.58
2019-05-29T18:36:02.042Z,57.92
2019-05-29T18:38:34.621Z,57.73
2019-05-29T18:41:07.006Z,57.92
2019-05-29T18:43:39.965Z,57.83
2019-05-29T18:46:12.863Z,58.30
2019-05-29T18:48:45.662Z,58.53
2019-05-29T18:51:18.337Z,58.98
2019-05-29T18:53:50.784Z,59.18
2019-05-29T18:56:24.034Z,59.60
2019-05-29T18:58:56.827Z,59.87
2019-05-29T19:01:31.633Z,60.20
2019-05-29T19:04:04.356Z,60.47
2019-05-29T19:06:37.681Z,60.95
2019-05-29T19:09:10.275Z,62.13
2019-05-29T19:11:42.936Z,62.90
2019-05-29T19:14:15.839Z,63.57
2019-05-29T19:16:48.897Z,64.24
2019-05-29T19:19:22.011Z,64.70
2019-05-29T19:21:55.704Z,65.24
2019-05-29T19:24:28.577Z,65.76
2019-05-29T19:27:01.221Z,66.47
2019-05-29T19:29:33.663Z,66.95
2019-05-29T19:32:06.536Z,67.65
2019-05-29T19:34:38.948Z,68.12
2019-05-29T19:37:11.525Z,68.96
2019-05-29T19:39:43.870Z,68.96
2019-05-29T19:42:16.636Z,69.20
2019-05-29T19:44:48.809Z,69.51
2019-05-29T19:47:21.687Z,69.59
2019-05-29T19:49:54.050Z,69.59
2019-05-29T19:52:27.054Z,69.94
2019-05-29T19:54:59.616Z,70.21
2019-05-29T19:57:50.847Z,70.41
2019-05-29T20:00:08.800Z,70.66
2019-05-29T20:02:41.348Z,70.75
2019-05-29T20:05:13.711Z,71.17
2019-05-29T20:07:45.400Z,71.17
2019-05-29T20:10:18.105Z,71.63
2019-05-29T20:12:50.865Z,71.82
2019-05-29T20:15:23.508Z,72.07
2019-05-29T20:17:56.437Z,73.05
2019-05-29T20:20:30.248Z,73.72
2019-05-29T20:23:02.954Z,73.72
2019-05-29T20:25:37.122Z,74.68
2019-05-29T20:28:09.349Z,75.16
2019-05-29T20:30:42.716Z,76.03
2019-05-29T20:33:15.666Z,76.78
2019-05-29T20:35:48.124Z,76.87
2019-05-29T20:38:20.487Z,77.03
2019-05-29T20:40:53.192Z,77.16
2019-05-29T20:43:25.579Z,77.44
2019-05-29T20:45:57.315Z,77.51
2019-05-29T20:48:30.572Z,77.64
2019-05-29T20:51:04.126Z,77.46
2019-05-29T20:53:37.475Z,77.50
2019-05-29T20:56:10.101Z,77.90
2019-05-29T20:58:43.522Z,78.51
2019-05-29T21:01:15.238Z,78.77
2019-05-29T21:03:47.294Z,79.88
2019-05-29T21:06:19.983Z,80.30
2019-05-29T21:08:52.339Z,80.61
2019-05-29T21:11:25.060Z,80.92
2019-05-29T21:13:57.590Z,81.09
2019-05-29T21:16:30.282Z,81.56
2019-05-29T21:19:02.673Z,82.17
2019-05-29T21:21:34.540Z,82.49
2019-05-29T21:24:06.681Z,83.02
2019-05-29T21:26:39.530Z,82.91
2019-05-29T21:29:12.159Z,83.04
2019-05-29T21:31:43.890Z,83.28
2019-05-29T21:34:15.857Z,83.96
2019-05-29T21:36:48.212Z,83.88
2019-05-29T21:39:20.440Z,84.09
2019-05-29T21:41:53.712Z,84.37
2019-05-29T21:44:26.065Z,84.92
2019-05-29T21:46:59.678Z,85.16
2019-05-29T21:49:32.154Z,85.60
2019-05-29T21:52:04.645Z,86.10
2019-05-29T21:54:37.413Z,86.88
2019-05-29T21:57:09.886Z,86.84
2019-05-29T21:59:43.613Z,85.66
2019-05-29T22:02:17.175Z,86.05
2019-05-29T22:04:50.012Z,87.16
2019-05-29T22:07:22.484Z,87.41
2019-05-29T22:09:56.597Z,87.38
2019-05-29T22:12:29.134Z,87.47
2019-05-29T22:15:02.761Z,88.24
2019-05-29T22:17:36.813Z,88.42
2019-05-29T22:20:09.840Z,88.87
2019-05-29T22:22:42.301Z,89.14
2019-05-29T22:25:15.241Z,89.61
2019-05-29T22:27:48.067Z,89.92
2019-05-29T22:30:20.601Z,91.23
2019-05-29T22:32:53.697Z,92.03
2019-05-29T22:35:26.311Z,93.74
2019-05-29T22:38:00.074Z,94.25
2019-05-29T22:40:33.460Z,94.75
2019-05-29T22:43:05.988Z,95.62
2019-05-29T22:45:38.570Z,96.71
2019-05-29T22:48:11.099Z,97.41
2019-05-29T22:50:43.947Z,98.63
2019-05-29T22:53:16.401Z,99.56
2019-05-29T22:55:49.283Z,100.00
2019-05-29T22:58:21.680Z,100.00
2019-05-29T23:00:54.437Z,100.00
2019-05-29T23:03:26.944Z,100.00
2019-05-29T23:06:00.405Z,100.00
2019-05-29T23:08:32.889Z,100.00
2019-05-29T23:11:05.615Z,100.00
2019-05-29T23:13:38.056Z,100.00
2019-05-29T23:16:09.917Z,100.00
2019-05-29T23:18:42.075Z,100.00
2019-05-29T23:21:14.782Z,100.00
2019-05-29T23:23:47.440Z,100.00
2019-05-29T23:26:20.327Z,100.00
2019-05-29T23:28:52.924Z,100.00
2019-05-29T23:31:25.723Z,100.00
2019-05-29T23:33:59.029Z,100.00
2019-05-29T23:36:32.618Z,100.00
2019-05-29T23:39:06.335Z,100.00
2019-05-29T23:41:38.887Z,100.00
2019-05-29T23:44:11.455Z,100.00
2019-05-29T23:46:43.901Z,100.00
2019-05-29T23:49:16.581Z,100.00
2019-05-29T23:51:49.048Z,100.00
2019-05-29T23:54:21.840Z,100.00
2019-05-29T23:56:55.725Z,100.00
2019-05-29T23:59:28.312Z,100.00
